createdAt,value
2019-06-10T00:00:16.232Z,91.70
2019-06-10T00:02:42.345Z,90.90
2019-06-10T00:05:10.969Z,92.40
2019-06-10T00:07:40.947Z,93.40
2019-06-10T00:10:10.644Z,93.10
2019-06-10T00:12:37.536Z,95.60
2019-06-10T00:15:06.263Z,96.90
2019-06-10T00:17:49.862Z,94.30
2019-06-10T00:20:05.443Z,94.60
2019-06-10T00:22:34.166Z,93.90
2019-06-10T00:25:02.684Z,95.00
2019-06-10T00:27:31.490Z,95.70
2019-06-10T00:30:00.605Z,96.10
2019-06-10T00:32:28.114Z,97.20
2019-06-10T00:34:55.519Z,95.40
2019-06-10T00:37:23.022Z,98.90
2019-06-10T00:39:51.231Z,99.90
2019-06-10T00:42:21.134Z,98.60
2019-06-10T00:44:48.179Z,98.30
2019-06-10T00:47:15.678Z,99.90
2019-06-10T00:49:43.072Z,98.30
2019-06-10T00:52:13.556Z,98.10
2019-06-10T00:54:41.723Z,98.00
2019-06-10T00:57:09.905Z,97.50
2019-06-10T00:59:38.402Z,97.90
2019-06-10T01:02:06.497Z,98.30
2019-06-10T01:04:33.990Z,98.50
2019-06-10T01:07:02.485Z,97.80
2019-06-10T01:09:31.074Z,97.10
2019-06-10T01:12:01.044Z,97.70
2019-06-10T01:14:27.878Z,96.80
2019-06-10T01:16:55.266Z,96.60
2019-06-10T01:19:22.654Z,96.20
2019-06-10T01:21:51.138Z,95.90
2019-06-10T01:24:19.138Z,95.90
2019-06-10T01:26:46.747Z,96.30
2019-06-10T01:29:15.555Z,95.30
2019-06-10T01:31:43.070Z,95.30
2019-06-10T01:34:12.388Z,95.30
2019-06-10T01:36:40.596Z,95.40
2019-06-10T01:39:09.628Z,94.50
2019-06-10T01:41:37.369Z,94.10
2019-06-10T01:44:06.383Z,93.20
2019-06-10T01:46:33.870Z,93.20
2019-06-10T01:49:01.270Z,92.50
2019-06-10T01:51:28.755Z,91.80
2019-06-10T01:53:56.297Z,91.30
2019-06-10T01:56:23.713Z,90.50
2019-06-10T01:58:51.461Z,89.80
2019-06-10T02:01:51.752Z,89.70
2019-06-10T02:04:22.134Z,88.80
2019-06-10T02:06:50.760Z,88.90
2019-06-10T02:09:18.794Z,88.70
2019-06-10T02:11:47.083Z,88.50
2019-06-10T02:14:17.436Z,88.20
2019-06-10T02:16:43.670Z,87.70
2019-06-10T02:19:14.001Z,87.50
2019-06-10T02:21:41.732Z,87.40
2019-06-10T02:24:12.782Z,87.00
2019-06-10T02:26:41.088Z,86.40
2019-06-10T02:29:08.610Z,86.20
2019-06-10T02:31:37.735Z,85.50
2019-06-10T02:34:05.278Z,85.20
2019-06-10T02:36:36.563Z,84.50
2019-06-10T02:39:04.586Z,83.70
2019-06-10T02:41:35.302Z,83.70
2019-06-10T02:44:03.939Z,82.80
2019-06-10T02:46:31.274Z,83.00
2019-06-10T02:49:19.919Z,82.60
2019-06-10T02:51:31.096Z,82.70
2019-06-10T02:53:57.735Z,82.30
2019-06-10T02:56:29.893Z,82.50
2019-06-10T02:58:54.442Z,81.80
2019-06-10T03:01:28.400Z,81.80
2019-06-10T03:03:54.121Z,81.70
2019-06-10T03:06:25.314Z,82.20
2019-06-10T03:08:49.489Z,81.40
2019-06-10T03:11:19.243Z,82.00
2019-06-10T03:13:46.886Z,80.90
2019-06-10T03:16:25.580Z,81.00
2019-06-10T03:18:52.631Z,80.30
2019-06-10T03:21:20.091Z,80.70
2019-06-10T03:23:47.519Z,79.20
2019-06-10T03:26:15.242Z,79.30
2019-06-10T03:28:43.200Z,78.20
2019-06-10T03:31:15.213Z,79.10
2019-06-10T03:33:41.848Z,76.60
2019-06-10T03:36:09.056Z,76.80
2019-06-10T03:38:37.171Z,76.50
2019-06-10T03:41:04.620Z,76.80
2019-06-10T03:43:33.005Z,76.40
2019-06-10T03:46:03.165Z,76.50
2019-06-10T03:48:32.583Z,76.30
2019-06-10T03:50:59.514Z,76.70
2019-06-10T03:53:28.535Z,76.60
2019-06-10T03:55:56.074Z,76.50
2019-06-10T03:58:25.953Z,75.80
2019-06-10T04:00:52.736Z,73.00
2019-06-10T04:03:21.989Z,74.70
2019-06-10T04:05:49.350Z,73.50
2019-06-10T04:08:17.461Z,74.60
2019-06-10T04:10:44.942Z,74.30
2019-06-10T04:13:13.190Z,74.70
2019-06-10T04:15:43.136Z,75.80
2019-06-10T04:18:12.580Z,75.40
2019-06-10T04:20:39.304Z,75.30
2019-06-10T04:23:06.942Z,76.00
2019-06-10T04:25:39.457Z,75.90
2019-06-10T04:28:07.050Z,76.00
2019-06-10T04:30:34.490Z,76.60
2019-06-10T04:33:02.391Z,76.90
2019-06-10T04:35:29.892Z,77.70
2019-06-10T04:37:57.451Z,78.00
2019-06-10T04:40:26.358Z,78.20
2019-06-10T04:42:54.054Z,78.10
2019-06-10T04:45:23.641Z,79.20
2019-06-10T04:47:52.446Z,78.60
2019-06-10T04:50:27.048Z,79.00
2019-06-10T04:52:49.391Z,78.80
2019-06-10T04:55:36.474Z,80.60
2019-06-10T04:58:04.227Z,80.60
2019-06-10T05:00:33.116Z,80.50
2019-06-10T05:03:02.732Z,80.20
2019-06-10T05:05:30.520Z,79.90
2019-06-10T05:07:59.167Z,80.10
2019-06-10T05:10:28.221Z,80.70
2019-06-10T05:12:55.704Z,80.00
2019-06-10T05:15:24.901Z,80.40
2019-06-10T05:17:52.764Z,79.80
2019-06-10T05:20:20.279Z,79.80
2019-06-10T05:22:47.678Z,79.50
2019-06-10T05:25:15.081Z,79.70
2019-06-10T05:27:43.114Z,79.50
2019-06-10T05:30:12.287Z,80.40
2019-06-10T05:32:39.846Z,80.50
2019-06-10T05:35:07.287Z,80.70
2019-06-10T05:37:34.671Z,80.50
2019-06-10T05:40:03.430Z,81.10
2019-06-10T05:42:34.016Z,81.60
2019-06-10T05:45:00.054Z,81.50
2019-06-10T05:47:28.333Z,80.90
2019-06-10T05:49:56.938Z,80.30
2019-06-10T05:52:24.935Z,80.30
2019-06-10T05:54:53.457Z,80.60
2019-06-10T05:57:23.933Z,80.30
2019-06-10T05:59:52.248Z,80.00
2019-06-10T06:02:22.119Z,79.70
2019-06-10T06:04:48.966Z,79.50
2019-06-10T06:07:16.374Z,78.60
2019-06-10T06:09:43.779Z,78.50
2019-06-10T06:12:14.191Z,77.70
2019-06-10T06:14:42.594Z,77.80
2019-06-10T06:17:09.823Z,77.40
2019-06-10T06:19:38.811Z,77.30
2019-06-10T06:22:06.311Z,76.10
2019-06-10T06:24:35.501Z,76.90
2019-06-10T06:27:03.206Z,76.60
2019-06-10T06:29:31.477Z,76.50
2019-06-10T06:31:59.826Z,76.30
2019-06-10T06:34:28.422Z,76.10
2019-06-10T06:36:55.930Z,75.70
2019-06-10T06:39:24.323Z,75.30
2019-06-10T06:41:52.836Z,74.60
2019-06-10T06:44:20.366Z,75.20
2019-06-10T06:46:47.762Z,73.80
2019-06-10T06:49:15.579Z,73.70
2019-06-10T06:51:54.607Z,73.60
2019-06-10T06:54:12.653Z,73.70
2019-06-10T06:56:41.207Z,73.70
2019-06-10T06:59:10.186Z,73.40
2019-06-10T07:01:39.174Z,72.50
2019-06-10T07:04:06.843Z,72.10
2019-06-10T07:06:36.036Z,72.40
2019-06-10T07:09:08.278Z,73.00
2019-06-10T07:11:38.710Z,72.70
2019-06-10T07:14:10.026Z,72.60
2019-06-10T07:16:38.994Z,72.40
2019-06-10T07:19:05.599Z,72.60
2019-06-10T07:21:36.170Z,72.70
2019-06-10T07:24:03.205Z,73.10
2019-06-10T07:26:34.072Z,72.70
2019-06-10T07:29:02.740Z,73.10
2019-06-10T07:31:29.198Z,73.00
2019-06-10T07:33:56.718Z,72.70
2019-06-10T07:36:24.122Z,72.30
2019-06-10T07:38:53.857Z,72.80
2019-06-10T07:41:23.189Z,72.80
2019-06-10T07:43:52.591Z,72.70
2019-06-10T07:46:19.467Z,72.40
2019-06-10T07:48:48.662Z,72.70
2019-06-10T07:51:16.430Z,71.30
2019-06-10T07:53:46.593Z,71.90
2019-06-10T07:56:13.296Z,71.50
2019-06-10T07:58:44.462Z,71.10
2019-06-10T08:01:12.880Z,71.90
2019-06-10T08:03:39.875Z,71.40
2019-06-10T08:06:07.359Z,71.30
2019-06-10T08:08:34.871Z,70.70
2019-06-10T08:11:03.370Z,70.50
2019-06-10T08:13:32.309Z,71.00
2019-06-10T08:16:02.526Z,70.70
2019-06-10T08:18:29.266Z,70.70
2019-06-10T08:20:56.669Z,70.20
2019-06-10T08:23:24.063Z,70.50
2019-06-10T08:25:56.571Z,69.70
2019-06-10T08:28:22.939Z,68.40
2019-06-10T08:30:49.913Z,68.20
2019-06-10T08:33:17.339Z,66.90
2019-06-10T08:35:54.943Z,68.10
2019-06-10T08:38:13.951Z,68.30
2019-06-10T08:40:45.008Z,68.50
2019-06-10T08:43:13.162Z,67.80
2019-06-10T08:45:43.311Z,67.80
2019-06-10T08:48:09.852Z,68.40
2019-06-10T08:50:37.605Z,68.80
2019-06-10T08:53:13.625Z,68.40
2019-06-10T08:55:34.572Z,67.40
2019-06-10T08:58:04.545Z,67.50
2019-06-10T09:00:33.737Z,67.10
2019-06-10T09:03:04.000Z,67.00
2019-06-10T09:05:32.428Z,67.80
2019-06-10T09:08:02.599Z,65.40
2019-06-10T09:10:29.250Z,65.40
2019-06-10T09:12:56.655Z,64.80
2019-06-10T09:15:24.052Z,63.90
2019-06-10T09:17:55.310Z,64.10
2019-06-10T09:20:23.020Z,62.90
2019-06-10T09:23:13.216Z,63.00
2019-06-10T09:25:22.586Z,62.70
2019-06-10T09:27:52.423Z,62.50
2019-06-10T09:30:19.462Z,61.60
2019-06-10T09:32:51.132Z,61.70
2019-06-10T09:35:16.326Z,63.30
2019-06-10T09:37:48.396Z,62.50
2019-06-10T09:40:15.013Z,61.90
2019-06-10T09:42:46.282Z,61.90
2019-06-10T09:45:12.960Z,61.90
2019-06-10T09:47:45.608Z,61.50
2019-06-10T09:50:12.681Z,61.60
2019-06-10T09:52:42.149Z,61.90
2019-06-10T09:55:12.739Z,62.30
2019-06-10T09:57:41.260Z,62.40
2019-06-10T10:00:12.444Z,63.10
2019-06-10T10:02:44.899Z,63.60
2019-06-10T10:05:09.480Z,63.20
2019-06-10T10:07:37.743Z,63.00
2019-06-10T10:10:06.111Z,64.10
2019-06-10T10:12:33.507Z,64.90
2019-06-10T10:15:21.557Z,65.00
2019-06-10T10:17:33.217Z,65.70
2019-06-10T10:19:59.755Z,65.40
2019-06-10T10:22:27.166Z,65.90
2019-06-10T10:24:56.835Z,66.10
2019-06-10T10:27:24.012Z,66.70
2019-06-10T10:29:55.060Z,68.00
2019-06-10T10:32:23.151Z,68.10
2019-06-10T10:34:50.280Z,68.00
2019-06-10T10:37:19.031Z,68.20
2019-06-10T10:39:46.741Z,68.90
2019-06-10T10:42:14.170Z,68.80
2019-06-10T10:44:46.244Z,68.40
2019-06-10T10:47:12.454Z,67.90
2019-06-10T10:49:39.960Z,67.20
2019-06-10T10:52:07.405Z,66.50
2019-06-10T10:54:36.724Z,65.90
2019-06-10T10:57:04.421Z,65.30
2019-06-10T10:59:33.213Z,65.50
2019-06-10T11:02:02.327Z,64.80
2019-06-10T11:04:32.680Z,67.40
2019-06-10T11:07:01.144Z,67.40
2019-06-10T11:09:28.667Z,67.70
2019-06-10T11:11:58.028Z,67.60
2019-06-10T11:14:25.825Z,68.40
2019-06-10T11:16:56.891Z,68.10
2019-06-10T11:19:22.836Z,68.00
2019-06-10T11:21:51.501Z,68.00
2019-06-10T11:24:33.505Z,67.60
2019-06-10T11:26:48.390Z,67.50
2019-06-10T11:29:15.792Z,66.80
2019-06-10T11:31:43.237Z,66.90
2019-06-10T11:34:10.651Z,66.90
2019-06-10T11:36:38.063Z,66.90
2019-06-10T11:39:07.034Z,68.70
2019-06-10T11:41:34.448Z,69.10
2019-06-10T11:44:01.856Z,70.10
2019-06-10T11:46:29.393Z,69.10
2019-06-10T11:48:58.700Z,68.20
2019-06-10T11:51:26.027Z,68.60
2019-06-10T11:53:55.985Z,68.50
2019-06-10T11:56:22.871Z,67.70
2019-06-10T11:58:53.419Z,68.20
2019-06-10T12:01:19.895Z,68.80
2019-06-10T12:03:48.373Z,69.30
2019-06-10T12:06:15.926Z,69.60
2019-06-10T12:08:43.835Z,68.80
2019-06-10T12:11:12.669Z,68.70
2019-06-10T12:13:42.526Z,69.30
2019-06-10T12:18:39.075Z,70.40
2019-06-10T12:21:06.509Z,69.90
2019-06-10T12:23:34.142Z,69.70
2019-06-10T12:26:03.867Z,70.30
2019-06-10T12:28:32.666Z,69.90
2019-06-10T12:31:03.138Z,70.30
2019-06-10T12:33:29.270Z,69.40
2019-06-10T12:36:00.818Z,70.10
2019-06-10T12:38:26.081Z,69.90
2019-06-10T12:40:56.823Z,69.90
2019-06-10T12:43:23.221Z,68.00
2019-06-10T12:45:53.969Z,68.00
2019-06-10T12:48:22.208Z,66.60
2019-06-10T12:50:49.346Z,64.90
2019-06-10T12:53:16.999Z,63.20
2019-06-10T12:55:46.998Z,63.20
2019-06-10T12:58:13.922Z,63.90
2019-06-10T13:00:45.782Z,63.00
2019-06-10T13:03:13.728Z,59.00
2019-06-10T13:05:42.695Z,59.60
2019-06-10T13:08:13.305Z,57.40
2019-06-10T13:10:42.939Z,57.60
2019-06-10T13:13:10.611Z,56.70
2019-06-10T13:15:38.486Z,57.40
2019-06-10T13:18:07.764Z,56.80
2019-06-10T13:20:35.247Z,56.00
2019-06-10T13:23:17.245Z,55.60
2019-06-10T13:25:33.440Z,54.30
2019-06-10T13:28:04.283Z,53.90
2019-06-10T13:30:30.330Z,52.70
2019-06-10T13:33:00.059Z,50.60
2019-06-10T13:35:28.394Z,52.00
2019-06-10T13:37:56.813Z,51.30
2019-06-10T13:40:24.487Z,51.80
2019-06-10T13:42:52.767Z,51.80
2019-06-10T13:45:22.883Z,52.50
2019-06-10T13:47:49.722Z,52.40
2019-06-10T13:50:19.378Z,53.20
2019-06-10T13:52:47.200Z,53.30
2019-06-10T13:55:14.902Z,54.80
2019-06-10T13:57:44.456Z,55.20
2019-06-10T14:00:14.548Z,55.80
2019-06-10T14:02:43.227Z,56.00
2019-06-10T14:05:17.231Z,56.10
2019-06-10T14:07:40.403Z,55.50
2019-06-10T14:10:12.711Z,56.10
2019-06-10T14:12:37.504Z,56.50
2019-06-10T14:15:08.110Z,57.10
2019-06-10T14:17:34.537Z,57.10
2019-06-10T14:20:23.072Z,56.60
2019-06-10T14:22:52.969Z,56.20
2019-06-10T14:25:23.051Z,53.50
2019-06-10T14:27:49.647Z,53.90
2019-06-10T14:30:17.042Z,51.80
2019-06-10T14:32:44.457Z,51.30
2019-06-10T14:35:17.209Z,50.40
2019-06-10T14:37:43.047Z,51.60
2019-06-10T14:40:20.028Z,52.30
2019-06-10T14:42:39.949Z,53.30
2019-06-10T14:45:08.772Z,54.00
2019-06-10T14:47:36.202Z,55.40
2019-06-10T14:50:07.132Z,55.00
2019-06-10T14:52:34.534Z,55.20
2019-06-10T14:55:02.651Z,55.00
2019-06-10T14:57:30.449Z,54.80
2019-06-10T15:00:02.696Z,54.00
2019-06-10T15:02:28.907Z,54.10
2019-06-10T15:04:56.510Z,54.30
2019-06-10T15:07:24.122Z,54.30
2019-06-10T15:09:52.595Z,55.00
2019-06-10T15:12:22.623Z,55.50
2019-06-10T15:14:49.428Z,55.10
2019-06-10T15:17:16.967Z,55.30
2019-06-10T15:19:44.554Z,55.60
2019-06-10T15:22:13.757Z,55.60
2019-06-10T15:24:42.775Z,55.70
2019-06-10T15:27:19.580Z,57.40
2019-06-10T15:29:39.638Z,57.70
2019-06-10T15:32:17.211Z,59.00
2019-06-10T15:34:36.498Z,59.70
2019-06-10T15:37:04.012Z,59.60
2019-06-10T15:39:33.201Z,60.50
2019-06-10T15:42:03.019Z,60.00
2019-06-10T15:44:47.914Z,59.90
2019-06-10T15:46:59.435Z,60.30
2019-06-10T15:49:27.131Z,59.70
2019-06-10T15:52:17.510Z,60.20
2019-06-10T15:54:43.722Z,61.80
2019-06-10T15:57:28.497Z,63.30
2019-06-10T15:59:42.651Z,62.70
2019-06-10T16:02:11.178Z,63.60
2019-06-10T16:04:39.336Z,64.20
2019-06-10T16:07:06.742Z,63.50
2019-06-10T16:09:34.180Z,65.90
2019-06-10T16:12:02.926Z,65.50
2019-06-10T16:14:33.011Z,67.00
2019-06-10T16:16:59.866Z,65.50
2019-06-10T16:19:27.280Z,64.60
2019-06-10T16:21:54.700Z,65.00
2019-06-10T16:24:25.979Z,65.20
2019-06-10T16:26:52.600Z,65.30
2019-06-10T16:29:21.657Z,65.00
2019-06-10T16:31:49.408Z,65.90
2019-06-10T16:34:16.837Z,66.50
2019-06-10T16:36:44.242Z,66.60
2019-06-10T16:39:12.542Z,67.20
2019-06-10T16:41:40.177Z,67.70
2019-06-10T16:44:07.650Z,68.00
2019-06-10T16:46:35.107Z,67.60
2019-06-10T16:49:03.238Z,68.30
2019-06-10T16:51:30.854Z,69.40
2019-06-10T16:53:58.472Z,68.40
2019-06-10T16:56:27.754Z,68.00
2019-06-10T16:58:55.391Z,67.10
2019-06-10T17:01:25.477Z,67.50
2019-06-10T17:03:52.568Z,67.30
2019-06-10T17:06:22.041Z,67.30
2019-06-10T17:08:49.385Z,66.80
2019-06-10T17:11:16.824Z,66.50
2019-06-10T17:13:44.235Z,66.50
2019-06-10T17:16:12.771Z,66.60
2019-06-10T17:18:40.408Z,66.50
2019-06-10T17:21:07.811Z,67.10
2019-06-10T17:23:36.596Z,67.80
2019-06-10T17:26:04.409Z,67.50
2019-06-10T17:28:36.383Z,68.70
2019-06-10T17:31:03.477Z,68.80
2019-06-10T17:33:35.490Z,69.10
2019-06-10T17:36:03.462Z,70.70
2019-06-10T17:38:31.299Z,70.50
2019-06-10T17:40:58.830Z,70.30
2019-06-10T17:43:27.332Z,70.70
2019-06-10T17:45:55.351Z,71.20
2019-06-10T17:48:25.581Z,72.20
2019-06-10T17:50:52.585Z,73.70
2019-06-10T17:53:20.238Z,73.40
2019-06-10T17:55:47.778Z,74.80
2019-06-10T17:58:29.172Z,74.90
2019-06-10T18:00:44.723Z,74.00
2019-06-10T18:03:13.146Z,74.80
2019-06-10T18:05:42.522Z,76.70
2019-06-10T18:08:09.990Z,75.80
2019-06-10T18:10:37.400Z,77.00
2019-06-10T18:13:15.786Z,77.00
2019-06-10T18:15:36.766Z,75.90
2019-06-10T18:18:03.653Z,76.30
2019-06-10T18:20:34.025Z,75.60
2019-06-10T18:23:02.753Z,75.20
2019-06-10T18:25:30.840Z,75.10
2019-06-10T18:28:02.652Z,75.00
2019-06-10T18:30:34.616Z,74.90
2019-06-10T18:32:59.944Z,72.50
2019-06-10T18:35:27.834Z,73.10
2019-06-10T18:37:55.689Z,70.70
2019-06-10T18:40:23.194Z,69.90
2019-06-10T18:42:52.316Z,69.60
2019-06-10T18:45:22.360Z,69.90
2019-06-10T18:47:49.946Z,69.80
2019-06-10T18:50:18.059Z,69.90
2019-06-10T18:52:45.592Z,70.00
2019-06-10T18:55:13.698Z,70.00
2019-06-10T18:57:42.603Z,70.10
2019-06-10T19:00:14.314Z,70.00
2019-06-10T19:02:40.359Z,70.30
2019-06-10T19:05:08.136Z,70.50
2019-06-10T19:07:37.005Z,71.20
2019-06-10T19:10:05.731Z,71.40
2019-06-10T19:12:34.085Z,71.50
2019-06-10T19:15:02.829Z,71.40
2019-06-10T19:17:34.843Z,71.30
2019-06-10T19:20:03.778Z,71.30
2019-06-10T19:22:33.102Z,71.00
2019-06-10T19:24:59.919Z,71.20
2019-06-10T19:27:27.322Z,71.10
2019-06-10T19:29:55.115Z,71.20
2019-06-10T19:32:22.802Z,71.00
2019-06-10T19:34:51.981Z,71.00
2019-06-10T19:37:19.376Z,70.80
2019-06-10T19:39:53.214Z,70.90
2019-06-10T19:42:16.006Z,71.10
2019-06-10T19:44:45.814Z,70.90
2019-06-10T19:47:13.127Z,71.70
2019-06-10T19:50:00.107Z,71.90
2019-06-10T19:52:27.896Z,72.00
2019-06-10T19:54:55.311Z,72.80
2019-06-10T19:57:24.619Z,73.00
2019-06-10T20:00:07.782Z,75.30
2019-06-10T20:02:22.506Z,73.80
2019-06-10T20:04:52.774Z,73.80
2019-06-10T20:07:20.224Z,74.40
2019-06-10T20:09:47.643Z,74.30
2019-06-10T20:12:15.080Z,74.70
2019-06-10T20:14:43.594Z,74.90
2019-06-10T20:17:13.387Z,74.90
2019-06-10T20:19:43.137Z,74.80
2019-06-10T20:22:12.109Z,75.20
2019-06-10T20:24:40.460Z,75.50
2019-06-10T20:27:08.699Z,76.00
2019-06-10T20:29:36.120Z,76.10
2019-06-10T20:32:03.741Z,76.60
2019-06-10T20:34:31.307Z,76.20
2019-06-10T20:36:58.746Z,77.10
2019-06-10T20:39:29.262Z,77.30
2019-06-10T20:42:14.896Z,79.60
2019-06-10T20:44:43.278Z,78.30
2019-06-10T20:47:12.238Z,79.30
2019-06-10T20:49:44.566Z,78.70
2019-06-10T20:52:14.731Z,79.60
2019-06-10T20:54:43.389Z,79.10
2019-06-10T20:57:12.146Z,80.20
2019-06-10T20:59:42.178Z,80.40
2019-06-10T21:02:08.939Z,81.20
2019-06-10T21:04:36.384Z,80.60
2019-06-10T21:07:03.781Z,81.40
2019-06-10T21:09:32.676Z,81.10
2019-06-10T21:12:02.128Z,81.20
2019-06-10T21:14:29.569Z,83.50
2019-06-10T21:16:56.982Z,83.50
2019-06-10T21:19:25.566Z,82.80
2019-06-10T21:21:54.640Z,85.70
2019-06-10T21:24:23.172Z,84.20
2019-06-10T21:26:54.742Z,85.70
2019-06-10T21:29:20.035Z,85.00
2019-06-10T21:31:49.912Z,84.60
2019-06-10T21:34:16.850Z,84.80
2019-06-10T21:37:04.037Z,85.80
2019-06-10T21:39:32.357Z,85.20
2019-06-10T21:42:02.067Z,85.50
2019-06-10T21:44:29.060Z,86.40
2019-06-10T21:46:56.601Z,85.50
2019-06-10T21:49:24.080Z,86.20
2019-06-10T21:51:56.866Z,87.30
2019-06-10T21:54:22.618Z,86.90
2019-06-10T21:56:52.391Z,88.60
2019-06-10T21:59:19.252Z,90.40
2019-06-10T22:01:47.568Z,89.60
2019-06-10T22:04:15.038Z,89.50
2019-06-10T22:06:43.786Z,89.20
2019-06-10T22:09:12.463Z,93.30
2019-06-10T22:11:42.142Z,92.10
2019-06-10T22:14:09.379Z,93.50
2019-06-10T22:16:36.838Z,93.90
2019-06-10T22:19:04.362Z,96.40
2019-06-10T22:21:32.595Z,97.40
2019-06-10T22:24:02.187Z,99.30
2019-06-10T22:26:32.112Z,99.90
2019-06-10T22:28:58.850Z,99.90
2019-06-10T22:31:26.662Z,99.90
2019-06-10T22:33:55.970Z,99.90
2019-06-10T22:36:23.351Z,99.90
2019-06-10T22:38:54.054Z,99.90
2019-06-10T22:41:22.489Z,99.90
2019-06-10T22:43:49.623Z,99.90
2019-06-10T22:46:17.263Z,99.90
2019-06-10T22:48:44.657Z,99.90
2019-06-10T22:51:12.366Z,99.90
2019-06-10T22:53:42.365Z,99.90
2019-06-10T22:56:09.138Z,99.90
2019-06-10T22:58:36.552Z,99.90
2019-06-10T23:01:04.462Z,99.90
2019-06-10T23:03:31.899Z,99.90
2019-06-10T23:05:59.299Z,99.90
2019-06-10T23:08:26.734Z,99.90
2019-06-10T23:10:56.595Z,99.90
2019-06-10T23:13:23.378Z,99.90
2019-06-10T23:15:53.498Z,99.90
2019-06-10T23:18:22.301Z,99.90
2019-06-10T23:20:49.292Z,99.90
2019-06-10T23:23:16.874Z,99.90
2019-06-10T23:25:44.278Z,99.90
2019-06-10T23:28:13.035Z,99.90
2019-06-10T23:30:42.686Z,99.90
2019-06-10T23:33:12.324Z,99.90
2019-06-10T23:35:39.310Z,99.90
2019-06-10T23:38:06.772Z,99.90
2019-06-10T23:40:34.363Z,99.90
2019-06-10T23:43:03.799Z,99.90
2019-06-10T23:45:32.730Z,99.90
2019-06-10T23:48:01.317Z,99.90
2019-06-10T23:50:29.419Z,99.90
2019-06-10T23:53:00.977Z,99.90
2019-06-10T23:55:26.060Z,99.90
2019-06-10T23:57:54.772Z,99.90
